createdAt,value
2023-03-19T00:01:47.631Z,9.45
2023-03-19T00:04:17.470Z,9.45
2023-03-19T00:06:47.455Z,9.49
2023-03-19T00:09:17.289Z,9.01
2023-03-19T00:11:47.172Z,8.85
2023-03-19T00:14:18.897Z,9.00
2023-03-19T00:16:51.507Z,8.83
2023-03-19T00:19:21.510Z,8.52
2023-03-19T00:21:51.403Z,8.18
2023-03-19T00:24:21.413Z,8.71
2023-03-19T00:26:51.352Z,8.77
2023-03-19T00:29:21.226Z,8.15
2023-03-19T00:31:53.650Z,8.82
2023-03-19T00:34:23.566Z,8.84
2023-03-19T00:36:53.697Z,8.63
2023-03-19T00:39:23.530Z,8.22
2023-03-19T00:41:53.623Z,8.34
2023-03-19T00:44:23.489Z,8.23
2023-03-19T00:46:56.303Z,8.06
2023-03-19T00:49:26.488Z,8.70
2023-03-19T00:51:56.335Z,8.59
2023-03-19T00:54:26.175Z,7.50
2023-03-19T00:56:56.283Z,7.00
2023-03-19T00:59:27.746Z,6.77
2023-03-19T01:02:00.241Z,6.79
2023-03-19T01:04:30.185Z,6.26
2023-03-19T01:09:29.753Z,6.75
2023-03-19T01:12:03.832Z,6.34
2023-03-19T01:14:35.041Z,6.33
2023-03-19T01:17:07.724Z,6.53
2023-03-19T01:19:37.795Z,6.53
2023-03-19T01:22:07.908Z,6.27
2023-03-19T01:24:38.969Z,6.67
2023-03-19T01:27:08.905Z,6.20
2023-03-19T01:29:39.656Z,6.32
2023-03-19T01:32:19.946Z,6.37
2023-03-19T01:35:12.892Z,6.63
2023-03-19T01:37:43.258Z,6.18
2023-03-19T01:40:16.237Z,6.02
2023-03-19T01:42:58.597Z,6.19
2023-03-19T01:46:02.405Z,6.22
2023-03-19T01:49:00.076Z,6.04
2023-03-19T01:51:35.014Z,6.13
2023-03-19T01:54:25.998Z,6.20
2023-03-19T01:57:11.589Z,5.79
2023-03-19T02:00:05.127Z,5.99
2023-03-19T02:02:52.665Z,5.87
2023-03-19T02:05:46.989Z,5.90
2023-03-19T02:08:22.997Z,6.03
2023-03-19T02:10:56.484Z,6.03
2023-03-19T02:13:26.446Z,6.03
2023-03-19T02:15:57.644Z,6.22
2023-03-19T02:18:28.339Z,6.26
2023-03-19T02:21:09.530Z,6.27
2023-03-19T02:23:48.549Z,6.06
2023-03-19T02:26:27.579Z,5.94
2023-03-19T02:29:04.254Z,5.79
2023-03-19T02:31:37.396Z,5.90
2023-03-19T02:34:29.939Z,5.97
2023-03-19T02:37:09.596Z,6.40
2023-03-19T02:39:50.841Z,5.84
2023-03-19T02:42:24.462Z,6.09
2023-03-19T02:44:54.322Z,5.89
2023-03-19T02:47:24.220Z,6.28
2023-03-19T02:49:54.114Z,5.94
2023-03-19T02:52:26.658Z,6.25
2023-03-19T02:54:56.501Z,5.88
2023-03-19T02:57:27.619Z,6.12
2023-03-19T02:59:57.530Z,5.72
2023-03-19T03:02:27.929Z,5.73
2023-03-19T03:04:57.956Z,5.79
2023-03-19T03:07:31.261Z,5.68
2023-03-19T03:10:01.190Z,5.87
2023-03-19T03:12:31.667Z,5.69
2023-03-19T03:15:02.183Z,5.71
2023-03-19T03:17:32.146Z,5.89
2023-03-19T03:20:02.143Z,5.78
2023-03-19T03:22:34.660Z,5.93
2023-03-19T03:25:04.518Z,5.65
2023-03-19T03:27:34.468Z,6.04
2023-03-19T03:30:04.324Z,5.42
2023-03-19T03:32:37.461Z,5.70
2023-03-19T03:35:09.040Z,5.78
2023-03-19T03:37:42.524Z,5.56
2023-03-19T03:40:16.200Z,5.31
2023-03-19T03:42:47.202Z,5.68
2023-03-19T03:45:17.491Z,5.62
2023-03-19T03:47:48.360Z,5.83
2023-03-19T03:50:18.561Z,5.72
2023-03-19T03:52:52.627Z,5.57
2023-03-19T03:55:22.524Z,5.60
2023-03-19T03:57:52.352Z,5.75
2023-03-19T04:00:24.133Z,5.72
2023-03-19T04:02:54.148Z,5.86
2023-03-19T04:05:24.036Z,6.19
2023-03-19T04:07:57.517Z,7.13
2023-03-19T04:10:28.303Z,6.92
2023-03-19T04:12:58.349Z,6.62
2023-03-19T04:15:31.348Z,6.17
2023-03-19T04:18:02.048Z,5.88
2023-03-19T04:20:32.634Z,5.94
2023-03-19T04:23:05.445Z,6.00
2023-03-19T04:25:35.425Z,6.08
2023-03-19T04:28:09.123Z,5.54
2023-03-19T04:30:39.249Z,5.98
2023-03-19T04:33:09.651Z,5.86
2023-03-19T04:35:40.245Z,5.66
2023-03-19T04:38:12.790Z,5.91
2023-03-19T04:40:43.801Z,5.95
2023-03-19T04:43:14.116Z,6.08
2023-03-19T04:45:44.582Z,5.88
2023-03-19T04:48:16.035Z,5.71
2023-03-19T04:50:47.167Z,5.71
2023-03-19T04:53:20.391Z,5.62
2023-03-19T04:55:51.456Z,5.40
2023-03-19T04:58:23.502Z,5.48
2023-03-19T05:01:00.210Z,5.52
2023-03-19T05:03:50.080Z,5.72
2023-03-19T05:06:20.168Z,5.63
2023-03-19T05:08:52.693Z,5.50
2023-03-19T05:11:23.461Z,5.38
2023-03-19T05:14:13.527Z,5.39
2023-03-19T05:17:01.847Z,5.63
2023-03-19T05:19:41.167Z,5.95
2023-03-19T05:22:12.266Z,5.83
2023-03-19T05:24:44.768Z,5.95
2023-03-19T05:27:15.160Z,5.77
2023-03-19T05:30:05.525Z,5.63
2023-03-19T05:32:47.814Z,5.98
2023-03-19T05:35:32.215Z,6.24
2023-03-19T05:38:03.140Z,6.20
2023-03-19T05:40:36.860Z,6.05
2023-03-19T05:43:21.005Z,6.31
2023-03-19T05:45:54.365Z,6.03
2023-03-19T05:48:28.554Z,6.07
2023-03-19T05:50:59.441Z,6.07
2023-03-19T05:53:34.020Z,5.81
2023-03-19T05:56:29.388Z,5.90
2023-03-19T05:59:19.222Z,5.75
2023-03-19T06:01:58.221Z,5.67
2023-03-19T06:04:28.390Z,5.86
2023-03-19T06:07:01.213Z,5.85
2023-03-19T06:09:31.582Z,5.87
2023-03-19T06:12:04.811Z,5.81
2023-03-19T06:14:47.301Z,5.93
2023-03-19T06:17:40.380Z,5.47
2023-03-19T06:20:15.980Z,5.70
2023-03-19T06:22:46.846Z,5.65
2023-03-19T06:25:17.066Z,6.09
2023-03-19T06:27:50.397Z,6.28
2023-03-19T06:30:34.136Z,5.92
2023-03-19T06:33:08.079Z,5.56
2023-03-19T06:35:38.040Z,5.82
2023-03-19T06:38:07.949Z,5.89
2023-03-19T06:40:37.780Z,6.17
2023-03-19T06:43:10.211Z,5.81
2023-03-19T06:45:40.120Z,6.00
2023-03-19T06:48:10.227Z,5.87
2023-03-19T06:50:40.154Z,5.94
2023-03-19T06:53:10.639Z,5.85
2023-03-19T06:55:40.584Z,5.73
2023-03-19T06:58:13.085Z,6.04
2023-03-19T07:00:42.968Z,6.21
2023-03-19T07:03:13.989Z,6.41
2023-03-19T07:05:43.852Z,7.32
2023-03-19T07:08:14.431Z,7.14
2023-03-19T07:10:44.368Z,7.06
2023-03-19T07:13:17.305Z,6.22
2023-03-19T07:15:47.348Z,6.13
2023-03-19T07:18:17.240Z,6.02
2023-03-19T07:20:47.282Z,5.98
2023-03-19T07:23:17.193Z,5.84
2023-03-19T07:25:47.817Z,5.98
2023-03-19T07:28:20.737Z,5.99
2023-03-19T07:30:50.592Z,5.82
2023-03-19T07:33:20.461Z,6.65
2023-03-19T07:35:50.758Z,6.40
2023-03-19T07:38:20.804Z,6.99
2023-03-19T07:41:01.495Z,6.44
2023-03-19T07:43:34.577Z,6.34
2023-03-19T07:46:04.539Z,6.24
2023-03-19T07:48:34.378Z,7.21
2023-03-19T07:51:04.407Z,6.46
2023-03-19T07:53:36.615Z,6.95
2023-03-19T07:56:06.719Z,6.30
2023-03-19T07:58:39.156Z,6.12
2023-03-19T08:01:09.278Z,6.03
2023-03-19T08:03:39.538Z,6.03
2023-03-19T08:06:09.461Z,6.03
2023-03-19T08:08:39.722Z,5.99
2023-03-19T08:11:10.029Z,6.30
2023-03-19T08:13:42.470Z,6.53
2023-03-19T08:16:12.324Z,6.23
2023-03-19T08:18:42.451Z,5.72
2023-03-19T08:21:12.292Z,5.92
2023-03-19T08:23:42.126Z,5.69
2023-03-19T08:26:12.209Z,5.61
2023-03-19T08:28:44.638Z,5.62
2023-03-19T08:31:16.794Z,5.16
2023-03-19T08:33:46.709Z,5.19
2023-03-19T08:36:18.147Z,5.16
2023-03-19T08:38:48.021Z,4.72
2023-03-19T08:41:17.923Z,5.10
2023-03-19T08:43:50.978Z,4.93
2023-03-19T08:46:21.053Z,5.01
2023-03-19T08:48:51.036Z,4.79
2023-03-19T08:51:21.037Z,5.24
2023-03-19T08:53:50.916Z,4.62
2023-03-19T08:56:20.931Z,4.10
2023-03-19T08:58:53.437Z,4.41
2023-03-19T09:01:24.034Z,3.78
2023-03-19T09:03:53.861Z,3.81
2023-03-19T09:06:23.752Z,3.71
2023-03-19T09:08:53.618Z,3.54
2023-03-19T09:11:23.551Z,3.51
2023-03-19T09:13:56.099Z,3.70
2023-03-19T09:16:26.342Z,3.65
2023-03-19T09:18:59.217Z,3.70
2023-03-19T09:21:29.303Z,3.72
2023-03-19T09:23:59.310Z,3.74
2023-03-19T09:26:29.327Z,3.63
2023-03-19T09:29:02.324Z,3.91
2023-03-19T09:31:32.320Z,3.79
2023-03-19T09:34:02.220Z,3.92
2023-03-19T09:36:32.500Z,4.20
2023-03-19T09:39:02.802Z,3.83
2023-03-19T09:41:43.318Z,3.95
2023-03-19T09:44:24.111Z,3.74
2023-03-19T09:47:02.473Z,3.74
2023-03-19T09:49:35.370Z,3.80
2023-03-19T09:52:31.756Z,3.84
2023-03-19T09:55:07.808Z,4.15
2023-03-19T09:57:40.146Z,3.83
2023-03-19T10:00:25.896Z,3.85
2023-03-19T10:03:04.320Z,3.51
2023-03-19T10:05:48.664Z,3.39
2023-03-19T10:08:44.440Z,3.82
2023-03-19T10:11:44.498Z,3.57
2023-03-19T10:14:44.098Z,3.39
2023-03-19T10:17:24.288Z,3.39
2023-03-19T10:20:01.304Z,3.83
2023-03-19T10:22:38.783Z,3.53
2023-03-19T10:25:16.306Z,4.09
2023-03-19T10:27:49.149Z,4.37
2023-03-19T10:30:21.996Z,3.96
2023-03-19T10:33:04.316Z,3.61
2023-03-19T10:35:44.151Z,3.50
2023-03-19T10:38:24.479Z,3.59
2023-03-19T10:41:13.720Z,3.63
2023-03-19T10:43:46.033Z,3.60
2023-03-19T10:46:17.427Z,3.63
2023-03-19T10:48:51.136Z,3.68
2023-03-19T10:51:27.539Z,3.49
2023-03-19T10:53:58.513Z,3.55
2023-03-19T10:56:31.357Z,3.67
2023-03-19T10:59:04.344Z,3.40
2023-03-19T11:01:38.973Z,3.29
2023-03-19T11:04:21.709Z,3.33
2023-03-19T11:06:53.597Z,3.33
2023-03-19T11:09:34.021Z,3.34
2023-03-19T11:12:11.376Z,3.45
2023-03-19T11:14:46.320Z,3.54
2023-03-19T11:17:31.704Z,3.45
2023-03-19T11:20:22.041Z,3.62
2023-03-19T11:22:53.432Z,3.41
2023-03-19T11:25:30.932Z,3.74
2023-03-19T11:28:04.359Z,3.94
2023-03-19T11:30:43.985Z,3.69
2023-03-19T11:33:37.101Z,3.96
2023-03-19T11:36:16.759Z,4.09
2023-03-19T11:39:03.301Z,4.04
2023-03-19T11:41:49.901Z,3.97
2023-03-19T11:44:27.383Z,3.65
2023-03-19T11:47:17.852Z,3.84
2023-03-19T11:50:18.341Z,3.72
2023-03-19T11:53:08.535Z,3.75
2023-03-19T11:55:46.793Z,3.68
2023-03-19T11:58:48.105Z,3.60
2023-03-19T12:01:33.342Z,3.56
2023-03-19T12:04:27.584Z,3.88
2023-03-19T12:07:08.654Z,3.55
2023-03-19T12:09:55.514Z,3.36
2023-03-19T12:12:29.877Z,3.54
2023-03-19T12:15:16.166Z,3.53
2023-03-19T12:18:01.420Z,3.43
2023-03-19T12:20:42.128Z,3.08
2023-03-19T12:23:29.973Z,3.54
2023-03-19T12:26:08.892Z,3.96
2023-03-19T12:28:47.501Z,3.69
2023-03-19T12:31:43.373Z,3.96
2023-03-19T12:34:29.786Z,3.83
2023-03-19T12:37:18.788Z,4.00
2023-03-19T12:40:01.723Z,3.89
2023-03-19T12:42:42.037Z,4.07
2023-03-19T12:45:29.091Z,4.23
2023-03-19T12:48:07.289Z,3.83
2023-03-19T12:50:42.465Z,4.13
2023-03-19T12:53:25.767Z,3.91
2023-03-19T12:56:02.745Z,4.16
2023-03-19T12:58:49.926Z,3.98
2023-03-19T13:01:28.595Z,4.28
2023-03-19T13:04:06.130Z,4.03
2023-03-19T13:06:39.890Z,4.32
2023-03-19T13:09:19.224Z,3.96
2023-03-19T13:11:56.609Z,4.14
2023-03-19T13:14:39.343Z,4.35
2023-03-19T13:17:22.306Z,4.36
2023-03-19T13:19:56.493Z,4.12
2023-03-19T13:22:30.126Z,4.15
2023-03-19T13:25:03.594Z,4.34
2023-03-19T13:27:36.166Z,4.37
2023-03-19T13:30:23.269Z,4.65
2023-03-19T13:32:56.647Z,4.59
2023-03-19T13:35:42.512Z,4.76
2023-03-19T13:38:24.218Z,4.78
2023-03-19T13:40:56.603Z,4.96
2023-03-19T13:43:44.458Z,4.86
2023-03-19T13:46:33.345Z,5.07
2023-03-19T13:49:26.671Z,4.95
2023-03-19T13:52:04.879Z,5.09
2023-03-19T13:54:41.475Z,4.39
2023-03-19T13:57:27.610Z,4.76
2023-03-19T13:59:57.500Z,4.67
2023-03-19T14:02:56.280Z,4.86
2023-03-19T14:05:26.424Z,4.82
2023-03-19T14:07:58.783Z,4.87
2023-03-19T14:10:32.011Z,4.62
2023-03-19T14:13:10.690Z,4.50
2023-03-19T14:15:52.093Z,4.62
2023-03-19T14:18:28.016Z,4.41
2023-03-19T14:21:07.192Z,4.58
2023-03-19T14:23:46.712Z,4.68
2023-03-19T14:26:23.066Z,4.64
2023-03-19T14:29:02.082Z,4.59
2023-03-19T14:31:38.087Z,4.54
2023-03-19T14:34:22.766Z,4.48
2023-03-19T14:37:03.541Z,4.40
2023-03-19T14:39:36.139Z,4.26
2023-03-19T14:42:10.999Z,4.36
2023-03-19T14:45:04.287Z,4.53
2023-03-19T14:48:03.893Z,4.45
2023-03-19T14:51:00.595Z,4.49
2023-03-19T14:53:42.331Z,4.49
2023-03-19T14:56:18.733Z,4.19
2023-03-19T14:58:53.393Z,4.41
2023-03-19T15:01:26.969Z,3.87
2023-03-19T15:03:59.635Z,4.02
2023-03-19T15:06:36.754Z,3.92
2023-03-19T15:09:10.512Z,3.72
2023-03-19T15:11:59.315Z,3.69
2023-03-19T15:14:49.213Z,3.74
2023-03-19T15:17:27.812Z,3.46
2023-03-19T15:20:02.400Z,3.24
2023-03-19T15:22:37.196Z,3.92
2023-03-19T15:25:12.627Z,3.63
2023-03-19T15:27:43.514Z,3.65
2023-03-19T15:30:24.889Z,3.78
2023-03-19T15:33:09.150Z,3.55
2023-03-19T15:35:41.084Z,3.65
2023-03-19T15:38:19.054Z,3.73
2023-03-19T15:40:49.785Z,3.61
2023-03-19T15:43:20.889Z,3.50
2023-03-19T15:45:55.778Z,3.34
2023-03-19T15:48:31.317Z,3.55
2023-03-19T15:51:05.099Z,3.43
2023-03-19T15:53:40.043Z,3.40
2023-03-19T15:56:11.326Z,3.26
2023-03-19T15:58:47.231Z,3.18
2023-03-19T16:01:20.126Z,3.21
2023-03-19T16:03:58.072Z,3.21
2023-03-19T16:06:32.069Z,3.02
2023-03-19T16:09:27.865Z,3.17
2023-03-19T16:11:58.052Z,2.85
2023-03-19T16:14:33.943Z,3.28
2023-03-19T16:17:06.735Z,3.43
2023-03-19T16:19:40.159Z,3.38
2023-03-19T16:22:17.907Z,3.41
2023-03-19T16:24:55.919Z,3.61
2023-03-19T16:27:37.175Z,3.94
2023-03-19T16:30:22.610Z,4.03
2023-03-19T16:33:01.990Z,4.86
2023-03-19T16:35:36.779Z,3.71
2023-03-19T16:38:16.663Z,3.40
2023-03-19T16:40:51.798Z,2.70
2023-03-19T16:43:25.737Z,1.92
2023-03-19T16:46:10.842Z,1.83
2023-03-19T16:48:40.941Z,1.73
2023-03-19T16:51:18.406Z,1.76
2023-03-19T16:53:51.207Z,1.94
2023-03-19T16:56:23.925Z,1.78
2023-03-19T16:58:54.215Z,1.94
2023-03-19T17:01:26.783Z,2.13
2023-03-19T17:03:56.923Z,2.12
2023-03-19T17:06:29.480Z,2.41
2023-03-19T17:08:59.477Z,3.34
2023-03-19T17:11:38.863Z,2.87
2023-03-19T17:14:15.992Z,3.18
2023-03-19T17:16:50.509Z,3.14
2023-03-19T17:19:26.025Z,3.30
2023-03-19T17:21:59.765Z,3.46
2023-03-19T17:24:32.290Z,3.18
2023-03-19T17:27:06.752Z,2.86
2023-03-19T17:29:36.738Z,3.27
2023-03-19T17:32:10.699Z,3.21
2023-03-19T17:34:40.717Z,3.12
2023-03-19T17:37:16.491Z,3.87
2023-03-19T17:39:46.434Z,5.23
2023-03-19T17:42:26.968Z,12.72
2023-03-19T17:44:58.674Z,11.42
2023-03-19T17:47:28.732Z,11.72
2023-03-19T17:50:02.521Z,6.54
2023-03-19T17:52:32.741Z,5.44
2023-03-19T17:55:03.489Z,4.77
2023-03-19T17:57:35.986Z,4.33
2023-03-19T18:00:06.467Z,3.84
2023-03-19T18:02:36.881Z,4.30
2023-03-19T18:05:07.440Z,4.09
2023-03-19T18:07:37.375Z,4.76
2023-03-19T18:10:07.949Z,5.81
2023-03-19T18:12:40.486Z,4.96
2023-03-19T18:15:11.530Z,4.46
2023-03-19T18:17:42.886Z,4.51
2023-03-19T18:20:17.754Z,5.38
2023-03-19T18:22:48.097Z,5.34
2023-03-19T18:25:20.604Z,5.33
2023-03-19T18:27:54.633Z,5.69
2023-03-19T18:30:26.356Z,6.08
2023-03-19T18:33:01.914Z,8.08
2023-03-19T18:35:34.365Z,6.68
2023-03-19T18:38:04.925Z,6.44
2023-03-19T18:40:36.212Z,5.89
2023-03-19T18:43:08.821Z,5.75
2023-03-19T18:45:38.984Z,5.79
2023-03-19T18:48:22.062Z,5.91
2023-03-19T18:50:52.024Z,6.10
2023-03-19T18:53:22.122Z,6.10
2023-03-19T18:55:53.126Z,6.29
2023-03-19T18:58:29.683Z,6.50
2023-03-19T19:01:01.617Z,8.29
2023-03-19T19:03:33.543Z,7.97
2023-03-19T19:06:03.413Z,6.48
2023-03-19T19:08:33.413Z,6.31
2023-03-19T19:11:06.248Z,6.29
2023-03-19T19:13:55.030Z,6.58
2023-03-19T19:16:31.018Z,6.31
2023-03-19T19:19:01.342Z,6.51
2023-03-19T19:21:31.254Z,6.21
2023-03-19T19:24:01.311Z,6.34
2023-03-19T19:26:33.829Z,6.47
2023-03-19T19:29:07.804Z,6.18
2023-03-19T19:31:38.299Z,7.79
2023-03-19T19:34:08.612Z,12.93
2023-03-19T19:36:38.610Z,7.67
2023-03-19T19:39:08.536Z,5.91
2023-03-19T19:41:38.851Z,4.80
2023-03-19T19:44:21.019Z,5.20
2023-03-19T19:46:53.383Z,5.65
2023-03-19T19:49:25.281Z,6.20
2023-03-19T19:51:55.131Z,6.39
2023-03-19T19:54:25.825Z,5.99
2023-03-19T19:56:56.712Z,6.18
2023-03-19T19:59:29.302Z,5.84
2023-03-19T20:01:59.286Z,5.44
2023-03-19T20:04:30.604Z,5.44
2023-03-19T20:07:00.624Z,5.68
2023-03-19T20:09:30.517Z,5.59
2023-03-19T20:12:00.547Z,6.09
2023-03-19T20:14:33.200Z,6.08
2023-03-19T20:17:05.371Z,5.73
2023-03-19T20:19:35.344Z,5.70
2023-03-19T20:22:05.284Z,6.04
2023-03-19T20:24:35.295Z,6.16
2023-03-19T20:27:07.289Z,6.45
2023-03-19T20:29:42.813Z,5.89
2023-03-19T20:32:29.916Z,5.97
2023-03-19T20:35:00.636Z,5.80
2023-03-19T20:37:30.930Z,5.64
2023-03-19T20:40:01.346Z,4.96
2023-03-19T20:42:35.480Z,5.41
2023-03-19T20:45:09.931Z,5.91
2023-03-19T20:47:39.825Z,4.80
2023-03-19T20:50:11.487Z,4.55
2023-03-19T20:52:41.526Z,4.69
2023-03-19T20:55:15.780Z,4.60
2023-03-19T20:57:48.387Z,5.80
2023-03-19T21:00:27.784Z,5.17
2023-03-19T21:02:59.581Z,4.76
2023-03-19T21:05:37.928Z,4.42
2023-03-19T21:08:16.689Z,4.64
2023-03-19T21:10:47.394Z,4.24
2023-03-19T21:13:21.362Z,4.16
2023-03-19T21:15:54.342Z,4.45
2023-03-19T21:18:24.445Z,4.65
2023-03-19T21:20:58.330Z,4.23
2023-03-19T21:23:34.835Z,4.27
2023-03-19T21:26:12.081Z,4.33
2023-03-19T21:28:44.844Z,4.64
2023-03-19T21:31:20.866Z,4.53
2023-03-19T21:33:52.812Z,4.31
2023-03-19T21:36:22.839Z,4.35
2023-03-19T21:38:53.423Z,3.91
2023-03-19T21:41:26.476Z,4.21
2023-03-19T21:43:58.939Z,3.84
2023-03-19T21:46:34.626Z,3.39
2023-03-19T21:49:04.535Z,3.15
2023-03-19T21:51:34.497Z,2.98
2023-03-19T21:54:05.696Z,2.93
2023-03-19T21:56:40.961Z,2.66
2023-03-19T21:59:18.053Z,2.82
2023-03-19T22:01:51.051Z,2.45
2023-03-19T22:04:21.584Z,2.23
2023-03-19T22:06:51.876Z,2.06
2023-03-19T22:09:21.715Z,2.06
2023-03-19T22:11:53.045Z,1.94
2023-03-19T22:14:28.925Z,1.62
2023-03-19T22:17:01.873Z,1.61
2023-03-19T22:19:31.986Z,1.59
2023-03-19T22:22:01.956Z,1.60
2023-03-19T22:24:31.895Z,1.54
2023-03-19T22:27:01.906Z,1.66
2023-03-19T22:29:35.437Z,1.72
2023-03-19T22:32:16.555Z,1.71
2023-03-19T22:34:46.853Z,1.71
2023-03-19T22:37:29.064Z,1.84
2023-03-19T22:39:59.394Z,1.77
2023-03-19T22:42:30.013Z,1.90
2023-03-19T22:45:00.504Z,2.01
2023-03-19T22:47:40.163Z,2.06
2023-03-19T22:50:19.759Z,2.04
2023-03-19T22:52:49.639Z,2.24
2023-03-19T22:55:19.981Z,2.18
2023-03-19T22:57:50.770Z,2.22
2023-03-19T23:00:23.839Z,2.21
2023-03-19T23:03:00.945Z,2.04
2023-03-19T23:05:37.453Z,2.08
2023-03-19T23:08:08.337Z,2.30
2023-03-19T23:10:39.807Z,2.23
2023-03-19T23:13:09.847Z,2.10
2023-03-19T23:15:40.850Z,2.25
2023-03-19T23:18:20.195Z,2.21
2023-03-19T23:20:51.014Z,2.28
2023-03-19T23:23:21.120Z,2.49
2023-03-19T23:25:51.141Z,2.42
2023-03-19T23:28:24.416Z,2.62
2023-03-19T23:30:54.901Z,2.65
2023-03-19T23:33:27.756Z,2.59
2023-03-19T23:35:59.435Z,2.44
2023-03-19T23:38:29.819Z,2.46
2023-03-19T23:41:01.129Z,2.49
2023-03-19T23:43:32.436Z,2.61
2023-03-19T23:46:02.594Z,2.55
2023-03-19T23:48:38.605Z,2.70
2023-03-19T23:51:09.811Z,2.77
2023-03-19T23:53:41.155Z,2.79
2023-03-19T23:56:21.359Z,2.55
2023-03-19T23:58:54.225Z,2.78
